Latest Weather Observations for Bradshaw-Angallari Valley (Defence)

IDD60801

Issued at 9:51 pm CST Friday 15 November 2019 (issued every 10 minutes, with the page automatically refreshed every 10 minutes)

About weather observations | Map of weather stations | Latest weather observations for NT | Other Formats
Station Details ID: 014808 Name: BRADSHAW - ANGALLARI VALLEY (DEFENCE) Lat: -15.44 Lon: 130.57 Height: 60.0 m
Data from the previous 72 hours. | See also: Recent months at Bradshaw-Angallari Valley (Defence)
Date/Time
CST
Temp
°C
App
Temp
°C
Dew
Point
°C
Rel
Hum
%
Delta-T
°C
Wind Press
QNH
hPa
Press
MSL
hPa
Rain since
9am
mm
Dir  Spd
km/h
Gust
km/h
Spd
kts
Gust
kts
15/09:30pm 35.8 31.6 -3.5 8 18.5 SE 9 15 5 8 1008.8 1008.3 0.0
15/09:00pm 36.0 32.2 -3.4 8 18.6 SE 7 9 4 5 1008.5 1008.0 0.0
15/08:30pm 37.0 33.1 -4.4 7 19.4 SE 7 11 4 6 1008.2 1007.7 0.0
15/08:00pm 37.7 33.9 -3.9 7 19.7 SE 7 9 4 5 1007.9 1007.4 0.0
15/07:30pm 39.3 35.2 -2.8 7 20.5 SE 9 15 5 8 1007.5 1007.0 0.0
15/07:00pm 40.2 35.6 -4.2 6 21.3 ESE 11 17 6 9 1007.2 1006.7 0.0
15/06:30pm 41.1 36.6 -3.6 6 21.8 ESE 11 17 6 9 1006.8 1006.3 0.0
15/06:00pm 41.8 36.2 -3.1 6 22.2 ESE 17 28 9 15 1006.6 1006.1 0.0
15/05:30pm 42.4 36.2 -5.1 5 22.9 ESE 19 32 10 17 1006.3 1005.8 0.0
15/05:00pm 42.3 37.5 -2.7 6 22.4 E 13 26 7 14 1006.2 1005.7 0.0
15/04:30pm 43.2 37.3 -2.1 6 22.9 S 19 33 10 18 1006.1 1005.6 0.0
15/04:00pm 43.6 37.8 -1.8 6 23.0 ESE 19 30 10 16 1006.3 1005.8 0.0
15/03:30pm 43.4 38.3 -2.0 6 23.0 ESE 15 26 8 14 1006.5 1006.0 0.0
15/03:00pm 43.4 38.3 -2.0 6 23.0 SE 15 30 8 16 1006.8 1006.3 0.0
15/02:30pm 43.2 38.0 0.0 7 22.5 ESE 17 30 9 16 1007.2 1006.7 0.0
15/02:00pm 42.8 37.9 -0.3 7 22.3 SE 15 26 8 14 1007.7 1007.2 0.0
15/01:30pm 42.9 37.3 -0.2 7 22.3 ESE 19 28 10 15 1008.3 1007.8 0.0
15/01:00pm 42.5 37.9 1.3 8 21.7 E 15 26 8 14 1008.8 1008.3 0.0
15/12:30pm 42.1 38.5 2.7 9 21.2 E 11 24 6 13 1009.4 1008.9 0.0
15/12:00pm 41.0 37.0 4.7 11 20.0 E 15 26 8 14 1009.9 1009.4 0.0
15/11:30am 40.9 37.1 5.9 12 19.6 ENE 15 24 8 13 1010.4 1009.9 0.0
15/11:00am 39.3 35.1 5.8 13 18.6 ENE 17 39 9 21 1010.9 1010.4 0.0
15/10:30am 38.1 34.3 6.0 14 17.8 ENE 15 26 8 14 1011.3 1010.8 0.0
15/10:00am 37.2 34.4 5.3 14 17.4 E 9 17 5 9 1011.5 1011.0 0.0
15/09:30am 35.7 33.1 3.0 13 17.1 ENE 6 15 3 8 1011.5 1011.0 0.0
15/09:00am 34.4 31.6 2.0 13 16.5 E 6 11 3 6 1011.5 1011.0 0.0
15/08:30am 33.2 31.1 5.7 18 14.8 NE 6 9 3 5 1011.3 1010.8 0.0
15/08:00am 31.8 29.9 6.8 21 13.6 NE 6 9 3 5 1011.2 1010.7 0.0
15/07:30am 30.4 29.3 9.8 28 11.7 NE 6 9 3 5 1010.9 1010.4 0.0
15/07:00am 27.1 31.4 21.2 70 3.9 CALM 0 0 0 0 1010.6 1010.1 0.0
15/06:30am 26.1 29.8 21.5 76 3.1 S 4 4 2 2 1010.1 1009.6 0.0
15/06:00am 26.1 29.1 20.9 73 3.4 SSE 6 7 3 4 1009.7 1009.2 0.0
15/05:30am 26.7 29.7 20.8 70 3.9 SSW 6 7 3 4 1009.3 1008.8 0.0
15/05:00am 27.0 29.8 20.8 69 4.1 SSW 7 13 4 7 1009.1 1008.6 0.0
15/04:30am 27.1 29.8 20.2 66 4.5 SSW 6 7 3 4 1008.9 1008.4 0.0
15/04:00am 26.2 28.6 17.0 57 5.7 CALM 0 0 0 0 1008.9 1008.4 0.0
15/03:30am 26.6 29.0 17.1 56 5.9 CALM 0 4 0 2 1008.8 1008.3 0.0
15/03:00am 27.3 29.0 17.2 54 6.3 SSE 4 6 2 3 1008.8 1008.3 0.0
15/02:30am 27.8 29.1 16.1 49 7.2 SSE 4 6 2 3 1008.9 1008.4 0.0
15/02:00am 28.8 30.6 16.4 47 7.7 S 2 6 1 3 1009.0 1008.5 0.0
15/01:30am 29.4 31.0 16.9 47 7.9 SW 4 7 2 4 1009.1 1008.6 0.0
15/01:00am 29.7 31.2 15.8 43 8.6 SW 2 4 1 2 1009.5 1009.0 0.0
15/12:30am 30.6 31.0 14.7 38 9.7 W 6 9 3 5 1009.6 1009.1 0.0
15/12:00am 31.2 29.5 7.6 23 13.0 NW 6 9 3 5 1009.5 1009.0 0.0
 
Date/Time
CST
Temp
°C
App
Temp
°C
Dew
Point
°C
Rel
Hum
%
Delta-T
°C
Wind Press
QNH
hPa
Press
MSL
hPa
Rain since
9am
mm
Dir  Spd
km/h
Gust
km/h
Spd
kts
Gust
kts
14/11:30pm 33.3 29.8 -1.1 11 16.6 SE 7 11 4 6 1009.0 1008.5 0.0
14/11:00pm 33.8 30.4 -0.7 11 16.7 ESE 7 9 4 5 1008.9 1008.4 0.0
14/10:30pm 34.2 31.0 -0.4 11 17.0 ESE 6 7 3 4 1008.7 1008.2 0.0
14/10:00pm 34.9 31.6 0.1 11 17.2 ESE 7 9 4 5 1008.5 1008.0 0.0
14/09:30pm 35.4 32.4 0.5 11 17.5 ESE 6 9 3 5 1008.2 1007.7 0.0
14/09:00pm 36.0 32.8 -0.4 10 18.1 ESE 6 7 3 4 1007.7 1007.2 0.0
14/08:30pm 36.7 33.6 0.1 10 18.4 ESE 6 7 3 4 1007.6 1007.1 0.0
14/08:00pm 37.7 34.5 -0.6 9 19.1 ESE 6 9 3 5 1007.2 1006.7 0.0
14/07:30pm 39.0 35.5 -1.2 8 20.1 ESE 7 11 4 6 1006.6 1006.1 0.0
14/07:00pm 39.9 35.8 -0.5 8 20.5 ESE 11 17 6 9 1006.3 1005.8 0.0
14/06:30pm 40.7 37.0 0.0 8 20.9 ESE 9 13 5 7 1006.0 1005.5 0.0
14/06:00pm 41.4 36.3 0.5 8 21.3 E 17 26 9 14 1005.9 1005.4 0.0
14/05:30pm 41.8 36.7 0.8 8 21.5 ESE 17 30 9 16 1005.7 1005.2 0.0
14/05:00pm 42.2 37.1 2.8 9 21.2 ESE 19 32 10 17 1005.7 1005.2 0.0
14/04:30pm 42.0 38.2 4.1 10 20.8 SSE 13 20 7 11 1005.9 1005.4 0.0
14/04:00pm 42.1 38.6 5.6 11 20.5 ESE 13 28 7 15 1006.4 1005.9 0.0
14/03:30pm 42.7 40.1 6.0 11 20.8 ESE 9 15 5 8 1006.8 1006.3 0.0
14/03:00pm 41.6 38.0 5.2 11 20.3 SE 13 30 7 16 1007.3 1006.8 0.0
14/02:30pm 42.2 40.1 8.1 13 19.9 E 9 24 5 13 1007.9 1007.4 0.0
14/02:00pm 40.9 38.3 9.2 15 18.6 SE 13 24 7 13 1008.6 1008.1 0.0
14/01:30pm 39.7 38.7 10.9 18 17.3 E 7 17 4 9 1009.2 1008.7 0.0
14/01:00pm 38.9 37.6 12.6 21 16.1 NE 11 24 6 13 1010.0 1009.5 0.0
14/12:30pm 39.0 38.6 14.1 23 15.6 NNE 9 19 5 10 1010.8 1010.3 0.0
14/12:00pm 37.6 37.2 14.2 25 14.6 NE 9 17 5 9 1011.4 1010.9 0.0
14/11:30am 36.1 37.1 16.3 31 12.6 NNW 6 9 3 5 1011.9 1011.4 0.0
14/11:00am 35.4 36.9 17.6 35 11.5 NNW 6 11 3 6 1012.4 1011.9 0.0
14/10:30am 34.5 36.2 18.1 37 10.7 SSE 6 13 3 7 1012.8 1012.3 0.0
14/10:00am 33.5 35.6 18.0 39 10.0 NNE 4 7 2 4 1013.1 1012.6 0.0
14/09:30am 32.7 35.3 19.2 44 8.9 NW 4 7 2 4 1013.2 1012.7 0.0
14/09:00am 31.3 34.1 19.6 49 7.7 NW 4 9 2 5 1013.1 1012.6 0.0
14/08:30am 30.4 32.9 20.3 54 6.7 NW 7 11 4 6 1013.0 1012.5 0.0
14/08:00am 29.6 31.8 19.3 54 6.7 WNW 6 9 3 5 1012.9 1012.4 0.0
14/07:30am 29.4 32.0 17.6 49 7.5 CALM 0 0 0 0 1012.6 1012.1 0.0
14/07:00am 28.0 29.7 17.2 52 6.8 E 4 6 2 3 1012.3 1011.8 0.0
14/06:30am 26.3 28.0 17.1 57 5.7 NE 4 6 2 3 1011.8 1011.3 0.0
14/06:00am 26.2 28.1 17.6 59 5.4 NE 4 6 2 3 1011.5 1011.0 0.0
14/05:30am 26.2 28.2 17.8 60 5.3 W 4 6 2 3 1011.1 1010.6 0.0
14/05:00am 26.6 29.4 17.9 59 5.5 CALM 0 0 0 0 1010.9 1010.4 0.0
14/04:30am 27.1 29.7 18.4 59 5.6 W 2 2 1 1 1010.3 1009.8 0.0
14/04:00am 27.4 29.8 18.7 59 5.6 S 4 4 2 2 1009.8 1009.3 0.0
14/03:30am 27.3 30.0 18.6 59 5.6 SW 2 4 1 2 1009.6 1009.1 0.0
14/03:00am 27.5 30.5 18.5 58 5.8 CALM 0 0 0 0 1009.7 1009.2 0.0
14/02:30am 27.9 30.7 18.9 58 5.8 SW 2 4 1 2 1009.5 1009.0 0.0
14/02:00am 28.2 31.0 18.9 57 6.0 SW 2 4 1 2 1009.9 1009.4 0.0
14/01:30am 28.8 32.0 18.9 55 6.4 CALM 0 0 0 0 1010.2 1009.7 0.0
14/01:00am 29.4 31.9 19.1 54 6.7 SSW 4 7 2 4 1010.3 1009.8 0.0
14/12:30am 29.9 32.1 19.3 53 6.9 SW 6 7 3 4 1010.3 1009.8 0.0
14/12:00am 30.5 31.6 17.2 44 8.4 SW 7 9 4 5 1010.3 1009.8 0.0
 
Date/Time
CST
Temp
°C
App
Temp
°C
Dew
Point
°C
Rel
Hum
%
Delta-T
°C
Wind Press
QNH
hPa
Press
MSL
hPa
Rain since
9am
mm
Dir  Spd
km/h
Gust
km/h
Spd
kts
Gust
kts
13/11:30pm 31.2 31.1 13.9 35 10.5 NW 7 11 4 6 1010.4 1009.9 0.0
13/11:00pm 31.5 31.7 14.2 35 10.5 WSW 6 7 3 4 1010.1 1009.6 0.0
13/10:30pm 32.2 33.0 14.8 35 10.7 W 4 6 2 3 1010.0 1009.5 0.0
13/10:00pm 32.9 33.0 14.5 33 11.3 W 7 13 4 7 1009.8 1009.3 0.0
13/09:30pm 33.6 33.6 15.1 33 11.5 W 9 13 5 7 1009.3 1008.8 0.0
13/09:00pm 34.7 33.9 15.1 31 12.3 NW 13 19 7 10 1008.9 1008.4 0.0
13/08:30pm 35.5 34.4 15.3 30 12.7 NW 15 20 8 11 1008.4 1007.9 0.0
13/08:00pm 38.9 36.1 3.1 11 19.0 ESE 7 13 4 7 1007.9 1007.4 0.0
13/07:30pm 39.8 35.7 2.5 10 19.8 ESE 13 19 7 10 1007.5 1007.0 0.0
13/07:00pm 40.2 36.6 2.8 10 19.9 E 11 24 6 13 1007.2 1006.7 0.0
13/06:30pm 41.0 37.1 3.4 10 20.3 ESE 13 24 7 13 1007.0 1006.5 0.0
13/06:00pm 41.9 38.5 4.0 10 20.8 ESE 11 22 6 12 1006.7 1006.2 0.0
13/05:30pm 42.1 38.4 4.2 10 20.9 SE 13 20 7 11 1006.6 1006.1 0.0
13/05:00pm 42.5 38.1 4.5 10 21.0 SE 17 32 9 17 1006.4 1005.9 0.0
13/04:30pm 43.0 38.0 3.4 9 21.6 E 19 35 10 19 1006.8 1006.3 0.0
13/04:00pm 43.2 38.6 3.5 9 21.7 SE 17 32 9 17 1006.9 1006.4 0.0
13/03:30pm 42.7 38.6 6.0 11 20.8 ENE 17 28 9 15 1007.5 1007.0 0.0
13/03:00pm 42.5 38.7 5.9 11 20.7 ESE 15 24 8 13 1007.8 1007.3 0.0
13/02:30pm 41.4 39.7 7.4 13 19.5 SSW 6 9 3 5 1008.3 1007.8 0.0
13/02:00pm 41.6 39.7 7.6 13 19.6 NW 7 20 4 11 1008.8 1008.3 0.0
13/01:30pm 40.9 38.9 10.1 16 18.3 SSE 11 22 6 12 1009.3 1008.8 0.0
13/01:00pm 40.0 38.7 11.2 18 17.3 SE 9 15 5 8 1009.8 1009.3 0.0
13/12:30pm 38.6 38.2 13.1 22 15.7 SSW 7 19 4 10 1010.3 1009.8 0.0
13/12:00pm 38.6 38.7 14.4 24 15.2 WSW 7 15 4 8 1010.8 1010.3 0.0
13/11:30am 37.9 38.4 15.1 26 14.4 WNW 6 9 3 5 1011.4 1010.9 0.0
13/11:00am 37.0 36.7 14.3 26 14.1 NW 9 19 5 10 1011.8 1011.3 0.0
13/10:30am 36.0 35.4 14.6 27 13.3 NW 11 20 6 11 1012.1 1011.6 0.0
13/10:00am 34.3 35.0 17.1 36 11.0 WNW 9 19 5 10 1012.5 1012.0 0.0
13/09:30am 33.3 34.8 19.0 42 9.4 NNW 9 19 5 10 1012.8 1012.3 0.0
13/09:00am 31.9 32.9 19.5 47 8.2 N 13 19 7 10 1012.9 1012.4 0.0
13/08:30am 30.7 32.6 20.6 54 6.7 NNE 11 20 6 11 1012.8 1012.3 0.0
13/08:00am 29.9 31.6 21.0 59 5.9 NNE 13 19 7 10 1012.7 1012.2 0.0
13/07:30am 29.0 30.4 20.4 59 5.7 NNE 13 20 7 11 1012.6 1012.1 0.0
13/07:00am 27.7 30.1 20.8 66 4.6 NNE 9 15 5 8 1012.3 1011.8 0.0
13/06:30am 26.8 28.2 18.6 60 5.2 NE 9 13 5 7 1012.0 1011.5 0.0
13/06:00am 26.9 28.5 18.2 59 5.5 NNE 7 11 4 6 1011.7 1011.2 0.0
13/05:30am 27.0 28.3 17.2 55 6.1 NE 6 11 3 6 1011.2 1010.7 0.0
13/05:00am 27.1 28.6 18.1 58 5.7 NE 7 11 4 6 1010.9 1010.4 0.0
13/04:30am 27.1 29.2 19.4 62 5.0 WSW 7 9 4 5 1010.6 1010.1 0.0
13/04:00am 27.4 30.1 19.5 62 5.1 SW 4 6 2 3 1009.9 1009.4 0.0
13/03:30am 27.6 30.0 18.9 59 5.6 SW 4 6 2 3 1010.0 1009.5 0.0
13/03:00am 27.7 29.8 18.1 56 6.1 WSW 4 7 2 4 1010.0 1009.5 0.0
13/02:30am 28.1 29.6 16.7 50 7.1 SW 4 6 2 3 1010.4 1009.9 0.0
13/02:00am 28.4 29.6 16.0 47 7.7 SSW 4 7 2 4 1010.6 1010.1 0.0
13/01:30am 28.6 29.0 14.8 43 8.4 WSW 6 9 3 5 1010.5 1010.0 0.0
13/01:00am 29.0 29.0 13.6 38 9.2 WSW 6 7 3 4 1010.4 1009.9 0.0
13/12:30am 29.5 29.5 12.4 35 10.1 W 4 6 2 3 1010.8 1010.3 0.0
13/12:00am 30.1 29.5 11.6 32 10.8 SW 6 7 3 4 1011.0 1010.5 0.0
 
Date/Time
CST
Temp
°C
App
Temp
°C
Dew
Point
°C
Rel
Hum
%
Delta-T
°C
Wind Press
QNH
hPa
Press
MSL
hPa
Rain since
9am
mm
Dir  Spd
km/h
Gust
km/h
Spd
kts
Gust
kts
12/11:30pm 30.8 30.0 11.2 30 11.4 SW 6 7 3 4 1011.2 1010.7 0.0
12/11:00pm 31.1 30.1 10.4 28 11.9 SW 6 9 3 5 1011.1 1010.6 0.0
12/10:30pm 31.5 31.2 10.2 27 12.2 WSW 2 6 1 3 1010.9 1010.4 0.0
12/10:00pm 32.3 31.0 9.8 25 12.8 WSW 7 13 4 7 1010.7 1010.2 0.0

Other formats

Comma delimited format used in spreadsheet applications
http://www.bom.gov.au/fwo/IDD60801/IDD60801.94221.axf

JavaScript Object Notation format (JSON) in row-major order
http://www.bom.gov.au/fwo/IDD60801/IDD60801.94221.json

Data quality

Most of these data are generated automatically and are frequently updated. Quality checks on data are not normally performed. It is possible for incorrect values to appear. Refer to information at About Latest Weather Observations and please check the disclaimer before using these data.